Time;durP1;ratioP1;P1;durP2;ratioP2;P2;SDS_P1;SDS_P2;PMS_P1;PMS_P2;Temp;Humidity;BMP_temperature;BMP_pressure;BME280_temperature;BME280_humidity;BME280_pressure;Samples;Min_cycle;Max_cycle;Signal;HPM_P1;HPM_P2
2022/07/28 00:00:16;;;;;;;9.00;2.60;;;28.40;99.90;;;;;;5054210;28;20108;-51
2022/07/28 00:02:42;;;;;;;7.37;2.90;;;28.40;99.90;;;;;;5053577;28;20043;-51
2022/07/28 00:05:08;;;;;;;7.00;2.38;;;28.40;99.90;;;;;;5034541;28;20278;-50
2022/07/28 00:07:34;;;;;;;9.90;2.58;;;28.40;99.90;;;;;;5053465;28;20078;-51
2022/07/28 00:09:59;;;;;;;9.43;3.17;;;28.40;99.90;;;;;;5050211;28;20017;-51
2022/07/28 00:12:25;;;;;;;7.68;3.03;;;28.40;99.90;;;;;;5052716;28;20036;-51
2022/07/28 00:14:51;;;;;;;8.50;2.13;;;28.40;99.90;;;;;;5051423;28;20032;-50
2022/07/28 00:17:17;;;;;;;5.53;2.50;;;28.40;99.90;;;;;;5048949;28;20029;-50
2022/07/28 00:19:42;;;;;;;7.82;1.95;;;28.40;99.90;;;;;;5045426;28;20025;-50
2022/07/28 00:22:08;;;;;;;10.95;3.40;;;28.40;99.90;;;;;;5049221;28;20021;-50
2022/07/28 00:24:36;;;;;;;9.57;2.35;;;28.40;99.90;;;;;;5051085;28;20472;-50
2022/07/28 00:27:02;;;;;;;9.40;2.10;;;28.40;99.90;;;;;;5046623;28;20032;-49
2022/07/28 00:29:31;;;;;;;5.35;2.20;;;28.40;99.90;;;;;;5031549;28;20106;-49
2022/07/28 00:31:57;;;;;;;4.32;2.38;;;28.40;99.90;;;;;;5050510;28;20025;-50
2022/07/28 00:34:23;;;;;;;3.78;2.20;;;28.40;99.90;;;;;;5047327;28;20032;-50
2022/07/28 00:36:49;;;;;;;10.65;2.55;;;28.40;99.90;;;;;;5045812;28;20552;-50
2022/07/28 00:39:14;;;;;;;11.57;2.55;;;28.40;99.90;;;;;;5051313;28;20031;-51
2022/07/28 00:41:41;;;;;;;8.93;2.35;;;28.30;99.90;;;;;;5052317;28;20051;-50
2022/07/28 00:44:07;;;;;;;7.50;2.23;;;28.40;99.90;;;;;;5052237;28;20029;-50
2022/07/28 00:46:33;;;;;;;6.60;2.20;;;28.40;99.90;;;;;;5052279;28;20353;-50
2022/07/28 00:48:59;;;;;;;8.68;2.30;;;28.40;99.90;;;;;;5052273;28;20036;-50
2022/07/28 00:51:26;;;;;;;10.80;2.53;;;28.40;99.90;;;;;;5052866;28;20025;-50
2022/07/28 00:53:53;;;;;;;6.00;2.00;;;28.30;99.90;;;;;;5046321;28;20178;-50
2022/07/28 00:56:20;;;;;;;6.30;1.83;;;28.40;99.90;;;;;;5040430;28;20052;-50
2022/07/28 00:58:46;;;;;;;10.20;2.08;;;28.30;99.90;;;;;;5039578;28;20036;-50
2022/07/28 01:01:19;;;;;;;10.07;2.07;;;28.30;99.90;;;;;;5046583;28;20401;-51
2022/07/28 01:03:50;;;;;;;8.18;2.80;;;28.30;99.90;;;;;;5041036;28;20032;-50
2022/07/28 01:06:34;;;;;;;7.00;2.00;;;28.30;99.90;;;;;;5027588;28;20063;-51
2022/07/28 01:09:12;;;;;;;6.57;2.58;;;28.30;99.90;;;;;;5032366;28;20604;-51
2022/07/28 01:12:08;;;;;;;7.00;1.80;;;28.20;99.90;;;;;;5030595;28;20442;-50
2022/07/28 01:14:37;;;;;;;6.00;2.28;;;28.20;99.90;;;;;;5032153;28;20036;-51
2022/07/28 01:17:28;;;;;;;6.43;2.67;;;28.20;99.90;;;;;;5031905;28;20017;-51
2022/07/28 01:20:09;;;;;;;12.60;2.03;;;28.10;99.90;;;;;;5032018;28;20033;-51
2022/07/28 01:22:40;;;;;;;5.60;1.80;;;28.10;99.90;;;;;;5037473;28;20029;-50
2022/07/28 01:25:06;;;;;;;8.90;2.42;;;28.10;99.90;;;;;;5032806;28;20017;-51
2022/07/28 01:27:35;;;;;;;7.20;1.92;;;28.10;99.90;;;;;;5050377;28;20496;-50
2022/07/28 01:30:29;;;;;;;13.00;2.97;;;28.10;99.90;;;;;;5032423;28;20025;-51
2022/07/28 01:33:01;;;;;;;10.82;2.78;;;28.00;99.90;;;;;;5035098;28;20039;-51
2022/07/28 01:35:31;;;;;;;7.03;2.13;;;28.00;99.90;;;;;;5050446;28;20019;-52
2022/07/28 01:38:02;;;;;;;8.02;2.08;;;28.00;99.90;;;;;;5050952;28;20436;-52
2022/07/28 01:40:32;;;;;;;8.13;2.85;;;28.00;99.90;;;;;;5050620;28;20078;-51
2022/07/28 01:43:00;;;;;;;4.65;2.13;;;28.00;99.90;;;;;;5050178;28;20036;-51
2022/07/28 01:45:27;;;;;;;8.02;2.53;;;28.00;99.90;;;;;;5050164;28;20103;-52
2022/07/28 01:47:56;;;;;;;9.93;2.08;;;28.00;99.90;;;;;;5050384;28;20637;-51
2022/07/28 01:50:25;;;;;;;10.93;2.70;;;27.90;99.90;;;;;;5050133;28;20021;-51
2022/07/28 01:52:52;;;;;;;6.45;2.40;;;28.00;99.90;;;;;;5050132;28;20104;-51
2022/07/28 01:55:21;;;;;;;9.38;2.30;;;27.90;99.90;;;;;;5051238;28;20079;-51
2022/07/28 01:57:47;;;;;;;5.55;2.10;;;28.00;99.90;;;;;;5051800;28;20094;-51
2022/07/28 02:00:14;;;;;;;7.32;2.78;;;27.90;99.90;;;;;;5052361;28;20226;-51
2022/07/28 02:02:44;;;;;;;10.82;2.67;;;27.90;99.90;;;;;;5031809;28;20079;-51
2022/07/28 02:05:13;;;;;;;7.43;2.30;;;27.90;99.90;;;;;;5031845;28;20029;-51
2022/07/28 02:07:42;;;;;;;6.95;3.40;;;27.90;99.90;;;;;;5031759;28;20033;-51
2022/07/28 02:10:10;;;;;;;8.38;2.03;;;27.80;99.90;;;;;;5031551;28;20041;-51
2022/07/28 02:12:38;;;;;;;11.73;3.00;;;27.80;99.90;;;;;;5031613;28;20037;-51
2022/07/28 02:15:07;;;;;;;12.20;2.60;;;27.80;99.90;;;;;;5031547;28;20025;-51
2022/07/28 02:17:35;;;;;;;11.70;2.53;;;27.80;99.90;;;;;;5031882;28;20033;-51
2022/07/28 02:20:04;;;;;;;11.27;2.67;;;27.80;99.90;;;;;;5031712;28;20097;-51
2022/07/28 02:22:31;;;;;;;6.80;2.72;;;27.80;99.90;;;;;;5031575;28;20112;-51
2022/07/28 02:24:57;;;;;;;6.93;1.73;;;27.70;99.90;;;;;;5031512;28;20026;-51
2022/07/28 02:27:37;;;;;;;6.50;1.80;;;27.70;99.90;;;;;;5031553;28;20048;-51
2022/07/28 02:30:15;;;;;;;7.35;2.33;;;27.70;99.90;;;;;;5031763;28;20112;-51
2022/07/28 02:33:11;;;;;;;15.55;3.05;;;27.70;99.90;;;;;;5031458;28;20033;-52
2022/07/28 02:36:06;;;;;;;8.48;2.85;;;27.70;99.90;;;;;;5031403;28;20210;-51
2022/07/28 02:38:40;;;;;;;9.23;3.08;;;27.70;99.90;;;;;;5031539;28;20037;-52
2022/07/28 02:41:27;;;;;;;9.05;2.50;;;27.70;99.90;;;;;;5031246;28;20456;-51
2022/07/28 02:43:57;;;;;;;8.23;2.10;;;27.60;99.90;;;;;;5031506;28;20083;-51
2022/07/28 02:46:27;;;;;;;6.78;2.45;;;27.60;99.90;;;;;;5031208;28;20036;-51
2022/07/28 02:49:05;;;;;;;10.98;2.58;;;27.60;99.90;;;;;;5031224;28;20022;-51
2022/07/28 02:51:32;;;;;;;;;;;27.60;99.90;;;;;;5030450;28;20037;-51
2022/07/28 02:53:59;;;;;;;13.73;2.78;;;27.60;99.90;;;;;;5032584;28;20296;-51
2022/07/28 02:56:25;;;;;;;7.63;2.50;;;27.50;99.90;;;;;;5035469;28;20064;-52
2022/07/28 02:58:53;;;;;;;11.48;3.03;;;27.50;99.90;;;;;;5035347;28;20116;-52
2022/07/28 03:01:20;;;;;;;8.27;2.38;;;27.50;99.90;;;;;;5044376;28;20045;-51
2022/07/28 03:03:47;;;;;;;7.00;2.63;;;27.50;99.90;;;;;;5055079;28;20025;-51
2022/07/28 03:06:15;;;;;;;9.23;2.30;;;27.50;99.90;;;;;;5055052;28;20025;-51
2022/07/28 03:08:42;;;;;;;8.13;1.98;;;27.50;99.90;;;;;;5054782;28;20071;-51
2022/07/28 03:11:08;;;;;;;8.32;2.30;;;27.50;99.90;;;;;;5054601;28;20083;-50
2022/07/28 03:13:34;;;;;;;7.65;2.70;;;27.40;99.90;;;;;;5054835;28;20033;-51
2022/07/28 03:16:00;;;;;;;4.70;2.13;;;27.40;99.90;;;;;;5054910;28;20025;-51
2022/07/28 03:18:27;;;;;;;12.75;2.67;;;27.50;99.90;;;;;;5054764;28;20059;-51
2022/07/28 03:20:53;;;;;;;;;;;27.50;99.90;;;;;;5053955;28;20107;-51
2022/07/28 03:23:23;;;;;;;9.48;2.83;;;27.40;99.90;;;;;;5054838;28;19909;-51
2022/07/28 03:25:53;;;;;;;13.38;3.05;;;27.40;99.90;;;;;;5054679;28;20039;-51
2022/07/28 03:28:20;;;;;;;9.25;2.45;;;27.40;99.90;;;;;;5054623;28;20427;-51
2022/07/28 03:30:53;;;;;;;8.98;2.67;;;27.40;99.90;;;;;;5054588;28;20021;-50
2022/07/28 03:33:19;;;;;;;7.80;2.70;;;27.40;99.90;;;;;;5054392;28;20033;-51
2022/07/28 03:35:48;;;;;;;11.95;2.60;;;27.40;99.90;;;;;;5036693;28;20448;-51
2022/07/28 03:38:19;;;;;;;10.07;3.38;;;27.30;99.90;;;;;;5054450;28;20025;-51
2022/07/28 03:40:47;;;;;;;10.20;2.97;;;27.40;99.90;;;;;;5054514;28;20419;-51
2022/07/28 03:43:15;;;;;;;10.38;2.55;;;27.30;99.90;;;;;;5036545;28;20039;-51
2022/07/28 03:45:42;;;;;;;7.15;2.40;;;27.30;99.90;;;;;;5054058;28;20071;-51
2022/07/28 03:48:08;;;;;;;10.30;2.55;;;27.30;99.90;;;;;;5054468;28;20025;-51
2022/07/28 03:50:34;;;;;;;9.18;2.35;;;27.40;99.90;;;;;;5054466;28;20040;-51
2022/07/28 03:53:03;;;;;;;21.30;3.55;;;27.30;99.90;;;;;;5054042;28;20488;-51
2022/07/28 03:55:29;;;;;;;5.32;2.50;;;27.40;99.90;;;;;;5054004;28;20071;-50
2022/07/28 03:57:56;;;;;;;11.20;3.10;;;27.40;99.90;;;;;;5054118;28;20025;-51
2022/07/28 04:00:24;;;;;;;6.57;2.55;;;27.40;99.90;;;;;;5054610;28;20431;-51
2022/07/28 04:02:50;;;;;;;9.13;3.40;;;27.30;99.90;;;;;;5054331;28;20091;-51
2022/07/28 04:05:17;;;;;;;11.52;3.28;;;27.30;99.90;;;;;;5053665;28;20132;-51
2022/07/28 04:07:44;;;;;;;;;;;27.40;99.90;;;;;;5054293;28;20167;-51
2022/07/28 04:10:13;;;;;;;10.63;2.70;;;27.30;99.90;;;;;;5054054;28;19912;-51
2022/07/28 04:12:56;;;;;;;8.68;2.78;;;27.30;99.90;;;;;;5054042;28;20041;-50
2022/07/28 04:15:23;;;;;;;12.82;2.58;;;27.30;99.90;;;;;;5053770;28;20163;-50
2022/07/28 04:17:50;;;;;;;;;;;27.30;99.90;;;;;;5054181;28;20021;-50
2022/07/28 04:20:17;;;;;;;12.33;2.97;;;27.30;99.90;;;;;;5053718;28;20339;-50
2022/07/28 04:22:44;;;;;;;12.70;2.97;;;27.30;99.90;;;;;;5053668;28;20104;-50
2022/07/28 04:25:11;;;;;;;14.82;3.35;;;27.30;99.90;;;;;;5053738;28;20129;-50
2022/07/28 04:27:38;;;;;;;14.02;3.05;;;27.20;99.90;;;;;;5053668;28;20036;-50
2022/07/28 04:30:06;;;;;;;14.55;3.17;;;27.20;99.90;;;;;;5053486;28;20029;-50
2022/07/28 04:32:32;;;;;;;8.75;2.67;;;27.20;99.90;;;;;;5053212;28;20037;-51
2022/07/28 04:34:58;;;;;;;11.70;2.72;;;27.20;99.90;;;;;;5053457;28;20082;-50
2022/07/28 04:37:24;;;;;;;11.32;3.42;;;27.20;99.90;;;;;;5053351;28;20064;-51
2022/07/28 04:39:49;;;;;;;17.15;3.58;;;27.10;99.90;;;;;;5053264;28;20531;-51
2022/07/28 04:42:17;;;;;;;17.15;4.68;;;27.10;99.90;;;;;;5035370;28;20021;-51
2022/07/28 04:44:44;;;;;;;15.73;3.38;;;27.10;99.90;;;;;;5053214;28;20029;-51
2022/07/28 04:47:12;;;;;;;14.82;4.68;;;27.10;99.90;;;;;;5053297;28;20021;-51
2022/07/28 04:49:38;;;;;;;15.38;3.40;;;27.10;99.90;;;;;;5053042;28;20029;-51
2022/07/28 04:52:05;;;;;;;18.67;6.18;;;27.10;99.90;;;;;;5035207;28;20032;-51
2022/07/28 04:54:30;;;;;;;12.63;4.57;;;27.00;99.90;;;;;;5053036;28;20095;-51
2022/07/28 04:56:56;;;;;;;56.33;8.15;;;27.00;99.90;;;;;;5052960;28;20425;-51
2022/07/28 04:59:22;;;;;;;24.90;4.53;;;27.00;99.90;;;;;;5034983;28;20021;-51
2022/07/28 05:01:48;;;;;;;16.98;4.35;;;26.90;99.90;;;;;;5052656;28;20049;-51
2022/07/28 05:04:15;;;;;;;18.95;3.97;;;26.90;99.90;;;;;;5053065;28;20492;-51
2022/07/28 05:06:40;;;;;;;15.82;3.42;;;26.80;99.90;;;;;;5052988;28;20025;-51
2022/07/28 05:09:06;;;;;;;14.25;3.80;;;26.80;99.90;;;;;;5052790;28;20032;-51
2022/07/28 05:11:32;;;;;;;15.60;3.10;;;26.80;99.90;;;;;;5052615;28;20377;-50
2022/07/28 05:13:58;;;;;;;6.40;2.80;;;26.70;99.90;;;;;;5052565;28;20485;-51
2022/07/28 05:16:23;;;;;;;9.80;2.80;;;26.70;99.90;;;;;;5051873;28;20021;-51
2022/07/28 05:18:49;;;;;;;8.98;2.92;;;26.70;99.90;;;;;;5052565;28;20039;-51
2022/07/28 05:21:15;;;;;;;8.98;3.03;;;26.70;99.90;;;;;;5052638;28;20425;-51
2022/07/28 05:23:40;;;;;;;14.52;3.45;;;26.60;99.90;;;;;;5052531;28;20025;-51
2022/07/28 05:26:06;;;;;;;9.52;2.78;;;26.60;99.90;;;;;;5052434;28;20052;-51
2022/07/28 05:28:32;;;;;;;10.55;3.33;;;26.60;99.90;;;;;;5052439;28;20440;-51
2022/07/28 05:30:59;;;;;;;11.15;3.55;;;26.60;99.90;;;;;;5052273;28;20112;-51
2022/07/28 05:33:24;;;;;;;17.85;2.85;;;26.50;99.90;;;;;;5052201;28;20069;-51
2022/07/28 05:35:58;;;;;;;12.45;2.95;;;26.60;99.90;;;;;;5052176;28;20045;-51
2022/07/28 05:38:25;;;;;;;14.52;4.32;;;26.60;99.90;;;;;;5052173;28;20025;-51
2022/07/28 05:40:51;;;;;;;10.60;3.23;;;26.50;99.90;;;;;;5052249;28;20025;-51
2022/07/28 05:43:17;;;;;;;6.65;2.80;;;26.50;99.90;;;;;;5052092;28;20025;-50
2022/07/28 05:45:43;;;;;;;13.07;2.88;;;26.50;99.90;;;;;;5052253;28;20021;-51
2022/07/28 05:48:09;;;;;;;10.98;3.17;;;26.50;99.90;;;;;;5052028;28;20075;-51
2022/07/28 05:50:35;;;;;;;12.20;3.92;;;26.50;99.90;;;;;;5033940;28;20067;-51
2022/07/28 05:53:01;;;;;;;12.70;3.75;;;26.40;99.90;;;;;;5051730;28;20029;-51
2022/07/28 05:55:27;;;;;;;13.13;3.55;;;26.40;99.90;;;;;;5051882;28;20028;-51
2022/07/28 05:57:53;;;;;;;10.75;3.30;;;26.40;99.90;;;;;;5051976;28;20056;-51
2022/07/28 06:00:21;;;;;;;15.13;3.42;;;26.40;99.90;;;;;;5051657;28;20064;-51
2022/07/28 06:02:50;;;;;;;13.30;2.90;;;26.50;99.90;;;;;;5051869;28;20057;-51
2022/07/28 06:05:18;;;;;;;10.23;3.55;;;26.40;99.90;;;;;;5051880;28;20040;-51
2022/07/28 06:07:45;;;;;;;13.25;3.40;;;26.40;99.90;;;;;;5034305;28;20028;-51
2022/07/28 06:10:13;;;;;;;12.70;2.67;;;26.50;99.90;;;;;;5051666;28;20045;-51
2022/07/28 06:12:47;;;;;;;12.32;3.25;;;26.40;99.90;;;;;;5051615;28;20051;-51
2022/07/28 06:15:16;;;;;;;13.15;3.97;;;26.40;99.90;;;;;;5051552;28;20358;-51
2022/07/28 06:17:42;;;;;;;15.70;3.22;;;26.40;99.90;;;;;;5051442;28;20024;-51
2022/07/28 06:20:09;;;;;;;13.13;3.38;;;26.40;99.90;;;;;;5051341;28;20032;-51
2022/07/28 06:22:42;;;;;;;14.95;3.45;;;26.40;99.90;;;;;;5051267;28;20028;-51
2022/07/28 06:25:22;;;;;;;14.98;3.55;;;26.50;99.90;;;;;;5051173;28;20025;-51
2022/07/28 06:27:50;;;;;;;13.63;3.78;;;26.40;99.90;;;;;;5051496;28;20044;-51
2022/07/28 06:30:16;;;;;;;11.80;3.38;;;26.50;99.90;;;;;;5051382;28;20044;-51
2022/07/28 06:32:43;;;;;;;11.82;3.50;;;26.40;99.90;;;;;;5051023;28;20076;-51
2022/07/28 06:35:10;;;;;;;14.87;3.67;;;26.50;99.90;;;;;;5051082;28;20021;-51
2022/07/28 06:37:36;;;;;;;12.60;3.60;;;26.40;99.90;;;;;;5051319;28;20462;-51
2022/07/28 06:40:03;;;;;;;14.50;3.83;;;26.40;99.90;;;;;;5051170;28;20028;-51
2022/07/28 06:42:28;;;;;;;12.90;3.42;;;26.40;99.90;;;;;;5051221;28;20423;-51
2022/07/28 06:44:54;;;;;;;12.30;3.60;;;26.40;99.90;;;;;;5051120;28;20025;-51
2022/07/28 06:47:20;;;;;;;12.27;3.53;;;26.40;99.90;;;;;;5051094;28;20054;-51
2022/07/28 06:49:46;;;;;;;15.43;3.20;;;26.40;99.90;;;;;;5032983;28;20028;-51
2022/07/28 06:52:11;;;;;;;14.18;4.22;;;26.50;99.90;;;;;;5051049;28;20064;-50
2022/07/28 06:54:37;;;;;;;10.77;3.03;;;26.40;99.90;;;;;;5050954;28;20374;-51
2022/07/28 06:57:03;;;;;;;14.00;3.50;;;26.50;99.90;;;;;;5050898;28;20423;-51
2022/07/28 06:59:29;;;;;;;14.52;3.70;;;26.40;99.90;;;;;;5050903;28;20032;-51
2022/07/28 07:02:00;;;;;;;12.57;3.67;;;26.40;99.90;;;;;;5050771;28;20052;-51
2022/07/28 07:04:27;;;;;;;14.63;3.45;;;26.40;99.90;;;;;;5050899;28;20021;-51
2022/07/28 07:06:53;;;;;;;11.25;3.92;;;26.40;99.90;;;;;;5050841;28;20104;-51
2022/07/28 07:09:19;;;;;;;16.08;4.00;;;26.40;99.90;;;;;;5051032;28;20103;-51
2022/07/28 07:11:44;;;;;;;13.27;3.63;;;26.40;99.90;;;;;;5050643;28;20030;-50
2022/07/28 07:14:10;;;;;;;9.43;3.20;;;26.40;99.90;;;;;;5050820;28;20487;-50
2022/07/28 07:16:36;;;;;;;11.88;2.85;;;26.40;99.90;;;;;;5050763;28;20427;-50
2022/07/28 07:19:02;;;;;;;15.27;5.13;;;26.50;99.90;;;;;;5050929;28;20051;-50
2022/07/28 07:21:28;;;;;;;16.10;3.55;;;26.50;99.90;;;;;;5050507;28;20021;-50
2022/07/28 07:23:54;;;;;;;9.73;3.22;;;26.50;99.90;;;;;;5050854;28;20025;-50
2022/07/28 07:26:20;;;;;;;16.35;4.32;;;26.50;99.90;;;;;;5050747;28;20434;-50
2022/07/28 07:28:46;;;;;;;17.63;4.03;;;26.50;99.90;;;;;;5050657;28;20029;-50
2022/07/28 07:31:12;;;;;;;12.05;3.80;;;26.50;99.90;;;;;;5050659;28;20037;-50
2022/07/28 07:33:38;;;;;;;16.63;4.25;;;26.50;99.90;;;;;;5050409;28;20551;-50
2022/07/28 07:36:04;;;;;;;13.35;3.33;;;26.50;99.90;;;;;;5050570;28;20025;-50
2022/07/28 07:38:30;;;;;;;11.50;3.22;;;26.50;99.90;;;;;;5050494;28;20032;-50
2022/07/28 07:40:56;;;;;;;24.75;5.53;;;26.50;99.90;;;;;;5053231;28;20388;-50
2022/07/28 07:43:22;;;;;;;17.05;3.88;;;26.50;99.90;;;;;;5054413;28;20025;-50
2022/07/28 07:45:48;;;;;;;12.50;4.07;;;26.60;99.90;;;;;;5054179;28;20021;-50
2022/07/28 07:48:14;;;;;;;16.60;4.93;;;26.50;99.90;;;;;;5054219;28;20151;-51
2022/07/28 07:50:40;;;;;;;14.80;4.03;;;26.50;99.90;;;;;;5054104;28;20025;-51
2022/07/28 07:53:05;;;;;;;14.18;3.80;;;26.50;99.90;;;;;;5053871;28;20523;-51
2022/07/28 07:55:31;;;;;;;16.08;4.57;;;26.50;99.90;;;;;;5053795;28;20021;-50
2022/07/28 07:57:57;;;;;;;11.23;4.47;;;26.50;99.90;;;;;;5052626;28;20044;-51
2022/07/28 08:00:23;;;;;;;13.80;5.32;;;26.50;99.90;;;;;;5054066;28;20117;-50
2022/07/28 08:02:49;;;;;;;9.75;3.55;;;26.50;99.90;;;;;;5053748;28;20049;-50
2022/07/28 08:05:16;;;;;;;13.23;4.82;;;26.50;99.90;;;;;;5053685;28;20025;-51
2022/07/28 08:07:42;;;;;;;17.17;4.32;;;26.50;99.90;;;;;;5053637;28;20486;-51
2022/07/28 08:10:08;;;;;;;12.38;3.45;;;26.50;99.90;;;;;;5053687;28;20021;-51
2022/07/28 08:12:34;;;;;;;15.77;3.80;;;26.50;99.90;;;;;;5053478;28;20058;-50
2022/07/28 08:15:00;;;;;;;12.05;3.95;;;26.50;99.90;;;;;;5035627;28;20460;-51
2022/07/28 08:17:26;;;;;;;13.13;3.53;;;26.50;99.90;;;;;;5053687;28;20028;-52
2022/07/28 08:19:53;;;;;;;14.80;4.25;;;26.50;99.90;;;;;;5053537;28;20492;-50
2022/07/28 08:22:18;;;;;;;12.20;4.28;;;26.50;99.90;;;;;;5053669;28;20025;-50
2022/07/28 08:24:44;;;;;;;9.90;3.67;;;26.50;99.90;;;;;;5053501;28;20126;-51
2022/07/28 08:27:10;;;;;;;11.57;4.00;;;26.60;99.90;;;;;;5053261;28;20021;-50
2022/07/28 08:29:36;;;;;;;15.77;3.45;;;26.60;99.90;;;;;;5053055;28;20033;-50
2022/07/28 08:32:02;;;;;;;11.50;2.90;;;26.60;99.90;;;;;;5053081;28;20032;-50
2022/07/28 08:34:29;;;;;;;12.55;3.03;;;26.60;99.90;;;;;;5035213;28;20029;-50
2022/07/28 08:36:55;;;;;;;10.55;3.05;;;26.60;99.90;;;;;;5053170;28;20481;-50
2022/07/28 08:39:21;;;;;;;10.27;3.60;;;26.60;99.90;;;;;;5053207;28;20082;-50
2022/07/28 08:42:05;;;;;;;12.70;3.38;;;26.60;99.90;;;;;;5035056;28;20053;-50
2022/07/28 08:44:40;;;;;;;7.50;2.70;;;26.60;99.90;;;;;;5052848;28;20025;-50
2022/07/28 08:47:14;;;;;;;10.80;3.85;;;26.70;99.90;;;;;;5052896;28;20028;-50
2022/07/28 08:49:41;;;;;;;8.63;3.80;;;26.70;99.90;;;;;;5052723;28;20412;-50
2022/07/28 08:52:12;;;;;;;8.65;2.67;;;26.70;99.90;;;;;;5033605;28;20469;-51
2022/07/28 08:54:44;;;;;;;14.02;3.22;;;26.70;99.90;;;;;;5034825;28;20048;-50
2022/07/28 08:57:15;;;;;;;11.07;3.65;;;26.70;99.90;;;;;;5052693;28;20025;-50
2022/07/28 08:59:42;;;;;;;8.77;3.45;;;26.80;99.90;;;;;;5052735;28;20075;-50
2022/07/28 09:02:11;;;;;;;11.57;3.30;;;26.80;99.90;;;;;;5052744;28;20049;-50
2022/07/28 09:04:38;;;;;;;6.88;2.42;;;26.80;99.90;;;;;;5052563;28;20107;-50
2022/07/28 09:07:05;;;;;;;10.80;2.92;;;26.80;99.90;;;;;;5052866;28;20021;-50
2022/07/28 09:09:31;;;;;;;12.90;3.38;;;26.90;99.90;;;;;;5034564;28;20361;-50
2022/07/28 09:11:58;;;;;;;10.53;2.37;;;26.90;99.90;;;;;;5052743;28;20591;-50
2022/07/28 09:14:25;;;;;;;11.85;3.22;;;27.00;99.90;;;;;;5052439;28;20083;-50
2022/07/28 09:16:52;;;;;;;7.80;3.20;;;27.00;99.90;;;;;;5052199;28;20053;-50
2022/07/28 09:19:17;;;;;;;6.05;2.95;;;27.10;99.90;;;;;;5052253;28;20448;-50
2022/07/28 09:21:43;;;;;;;10.95;3.03;;;27.10;99.90;;;;;;5052108;28;20052;-50
2022/07/28 09:24:09;;;;;;;11.57;4.20;;;27.20;99.90;;;;;;5052042;28;20017;-50
2022/07/28 09:26:35;;;;;;;9.60;3.75;;;27.20;99.90;;;;;;5052117;28;20032;-50
2022/07/28 09:29:03;;;;;;;11.98;3.03;;;27.30;99.90;;;;;;5052124;28;20035;-50
2022/07/28 09:31:29;;;;;;;12.07;3.05;;;27.40;99.90;;;;;;5034200;28;20025;-50
2022/07/28 09:34:02;;;;;;;11.02;3.60;;;27.40;99.90;;;;;;5052039;28;20087;-50
2022/07/28 09:36:37;;;;;;;11.00;3.90;;;27.40;99.90;;;;;;5052143;28;20029;-50
2022/07/28 09:39:03;;;;;;;10.77;3.60;;;27.50;99.90;;;;;;5052027;28;20028;-50
2022/07/28 09:41:44;;;;;;;20.02;4.07;;;27.50;99.90;;;;;;5052137;28;20033;-50
2022/07/28 09:44:20;;;;;;;12.32;3.63;;;27.50;99.90;;;;;;5051854;28;20091;-50
2022/07/28 09:46:46;;;;;;;7.25;3.00;;;27.50;99.90;;;;;;5051666;28;20049;-50
2022/07/28 09:49:13;;;;;;;11.85;3.20;;;27.60;99.90;;;;;;5051707;28;20428;-50
2022/07/28 09:51:38;;;;;;;16.25;3.95;;;27.60;99.90;;;;;;5033775;28;20056;-50
2022/07/28 09:54:18;;;;;;;7.10;3.55;;;27.60;99.90;;;;;;5033482;28;20069;-51
2022/07/28 09:56:45;;;;;;;10.35;3.05;;;27.70;99.90;;;;;;5051598;28;20029;-50
2022/07/28 09:59:11;;;;;;;20.52;8.40;;;27.70;99.90;;;;;;5051261;28;20476;-50
2022/07/28 10:02:11;;;;;;;11.23;3.60;;;27.70;99.90;;;;;;5051314;28;20037;-51
2022/07/28 10:04:40;;;;;;;7.72;3.45;;;27.70;99.90;;;;;;4997875;28;20033;-50
2022/07/28 10:07:15;;;;;;;8.95;3.10;;;27.80;99.90;;;;;;5051400;28;20377;-50
2022/07/28 10:09:42;;;;;;;11.23;3.38;;;27.80;99.90;;;;;;5051456;28;20017;-50
2022/07/28 10:12:21;;;;;;;13.05;3.75;;;27.90;99.90;;;;;;5051323;28;20021;-50
2022/07/28 10:14:50;;;;;;;11.88;2.90;;;27.90;99.90;;;;;;5051521;28;20032;-50
2022/07/28 10:17:32;;;;;;;12.10;4.03;;;27.90;99.90;;;;;;5051320;28;20053;-50
2022/07/28 10:20:05;;;;;;;13.88;3.83;;;27.90;99.90;;;;;;5050980;28;20040;-50
2022/07/28 10:22:37;;;;;;;6.53;3.15;;;27.90;99.90;;;;;;5051339;28;20021;-50
2022/07/28 10:25:11;;;;;;;13.43;4.10;;;27.90;99.90;;;;;;5051306;28;20036;-51
2022/07/28 10:27:40;;;;;;;12.20;3.90;;;27.90;99.90;;;;;;5050953;28;20104;-51
2022/07/28 10:30:07;;;;;;;8.90;2.67;;;27.90;99.90;;;;;;5051079;28;20029;-51
2022/07/28 10:32:41;;;;;;;10.23;3.30;;;27.90;99.90;;;;;;5051207;28;20065;-51
2022/07/28 10:35:15;;;;;;;10.02;3.58;;;27.90;99.90;;;;;;5050992;28;20021;-51
2022/07/28 10:37:49;;;;;;;9.23;3.40;;;27.90;99.90;;;;;;5033123;28;20116;-51
2022/07/28 10:40:17;;;;;;;7.07;3.10;;;28.00;99.90;;;;;;5033245;28;20070;-50
2022/07/28 10:42:43;;;;;;;10.73;3.45;;;28.00;99.90;;;;;;5051112;28;20025;-51
2022/07/28 10:45:10;;;;;;;8.05;3.20;;;28.00;99.90;;;;;;5050911;28;20083;-51
2022/07/28 10:47:36;;;;;;;10.82;3.13;;;28.00;99.90;;;;;;5051052;28;20389;-51
2022/07/28 10:50:02;;;;;;;12.73;3.58;;;28.00;99.90;;;;;;5051110;28;20040;-51
2022/07/28 10:52:30;;;;;;;11.93;3.80;;;28.00;99.90;;;;;;5050822;28;20116;-51
2022/07/28 10:55:07;;;;;;;7.18;3.28;;;28.10;99.90;;;;;;5050874;28;20079;-51
2022/07/28 10:57:36;;;;;;;13.02;4.60;;;28.10;99.90;;;;;;5050970;28;20029;-51
2022/07/28 11:00:16;;;;;;;7.25;4.25;;;28.10;99.90;;;;;;5051054;28;20135;-51
2022/07/28 11:02:57;;;;;;;10.60;3.53;;;28.20;99.90;;;;;;5050938;28;20437;-51
2022/07/28 11:05:37;;;;;;;7.75;3.42;;;28.20;99.90;;;;;;5050929;28;20036;-50
2022/07/28 11:08:27;;;;;;;11.35;3.80;;;28.30;99.90;;;;;;5051128;28;20079;-51
2022/07/28 11:10:55;;;;;;;11.85;3.55;;;28.40;99.90;;;;;;5051084;28;20124;-50
2022/07/28 11:13:26;;;;;;;15.48;5.57;;;28.40;99.90;;;;;;5049126;28;20037;-51
2022/07/28 11:15:52;;;;;;;8.90;3.38;;;28.40;99.90;;;;;;5052832;28;20028;-51
2022/07/28 11:18:18;;;;;;;12.20;4.00;;;28.40;99.90;;;;;;5052934;28;20111;-51
2022/07/28 11:20:51;;;;;;;10.93;4.03;;;28.50;99.90;;;;;;5052585;28;20104;-51
2022/07/28 11:23:35;;;;;;;8.30;3.97;;;28.50;99.90;;;;;;5052772;28;20043;-51
2022/07/28 11:26:26;;;;;;;13.48;4.22;;;28.60;99.90;;;;;;5054604;28;20163;-51
2022/07/28 11:29:07;;;;;;;11.27;3.95;;;28.60;99.90;;;;;;5053081;28;20035;-51
2022/07/28 11:31:45;;;;;;;18.25;4.65;;;28.60;99.90;;;;;;5054585;28;20028;-51
2022/07/28 11:34:21;;;;;;;8.07;3.60;;;28.60;99.90;;;;;;5054147;28;20503;-50
2022/07/28 11:37:06;;;;;;;9.27;3.73;;;28.60;99.90;;;;;;5054181;28;20049;-50
2022/07/28 11:39:34;;;;;;;8.15;3.47;;;28.70;99.90;;;;;;5048181;28;20025;-50
2022/07/28 11:42:19;;;;;;;;;;;28.70;99.90;;;;;;5054660;28;20188;-50
2022/07/28 11:44:45;;;;;;;7.60;3.22;;;28.70;99.90;;;;;;5052607;28;19939;-50
2022/07/28 11:47:19;;;;;;;9.40;3.85;;;28.80;99.90;;;;;;5049157;28;20464;-49
2022/07/28 11:50:05;;;;;;;7.20;3.83;;;28.80;99.90;;;;;;5052047;28;20025;-49
2022/07/28 11:52:31;;;;;;;6.95;3.33;;;28.90;99.90;;;;;;5049175;28;20479;-49
2022/07/28 11:54:57;;;;;;;7.20;3.72;;;28.90;99.90;;;;;;5049802;28;20467;-48
2022/07/28 11:57:26;;;;;;;8.95;3.65;;;28.90;99.90;;;;;;5051549;28;20048;-49
2022/07/28 11:59:54;;;;;;;7.75;3.20;;;29.00;99.90;;;;;;5052495;28;20063;-49
2022/07/28 12:02:26;;;;;;;10.52;3.55;;;29.10;99.90;;;;;;5043511;28;20046;-48
2022/07/28 12:05:01;;;;;;;9.52;3.42;;;29.10;99.90;;;;;;5050031;28;20051;-49
2022/07/28 12:07:32;;;;;;;9.25;3.72;;;29.10;99.90;;;;;;5052221;28;20021;-51
2022/07/28 12:09:59;;;;;;;11.07;3.20;;;29.10;99.90;;;;;;5050623;28;20031;-49
2022/07/28 12:12:26;;;;;;;15.20;5.65;;;29.10;99.90;;;;;;5050597;28;20481;-49
2022/07/28 12:14:56;;;;;;;13.18;7.20;;;29.20;99.90;;;;;;5034550;28;20059;-49
2022/07/28 12:17:31;;;;;;;26.33;15.48;;;29.20;99.90;;;;;;5051695;28;20013;-49
2022/07/28 12:20:07;;;;;;;18.50;6.10;;;29.30;99.90;;;;;;5050781;28;20035;-49
2022/07/28 12:22:32;;;;;;;22.20;13.48;;;29.30;99.90;;;;;;5033008;28;20444;-49
2022/07/28 12:24:58;;;;;;;14.10;7.15;;;29.30;99.90;;;;;;5051123;28;20025;-49
2022/07/28 12:27:28;;;;;;;10.63;3.08;;;29.40;99.90;;;;;;5046993;28;20038;-49
2022/07/28 12:29:58;;;;;;;9.35;4.20;;;29.40;99.90;;;;;;5049417;28;20033;-49
2022/07/28 12:32:30;;;;;;;8.85;3.85;;;29.50;99.90;;;;;;5049537;28;20122;-50
2022/07/28 12:34:56;;;;;;;6.57;2.90;;;29.50;99.90;;;;;;5050392;28;20033;-49
2022/07/28 12:37:22;;;;;;;6.32;2.90;;;29.50;99.90;;;;;;5050448;28;20444;-49
2022/07/28 12:39:51;;;;;;;5.70;2.45;;;29.50;99.90;;;;;;5051104;28;20427;-49
2022/07/28 12:42:16;;;;;;;4.45;2.28;;;29.50;99.90;;;;;;5051279;28;20380;-49
2022/07/28 12:44:45;;;;;;;6.50;2.83;;;29.50;99.90;;;;;;5051317;28;20013;-49
2022/07/28 12:47:12;;;;;;;4.50;2.40;;;29.60;99.90;;;;;;5049482;28;20032;-50
2022/07/28 12:49:41;;;;;;;6.93;2.20;;;29.60;99.90;;;;;;5048753;28;20033;-49
2022/07/28 12:52:23;;;;;;;8.93;3.60;;;29.60;99.90;;;;;;5049208;28;20061;-49